Time,TemperatureF,DewpointF,PressureIn,WindDirection,WindDirectionDegrees,WindSpeedMPH,WindSpeedGustMPH,Humidity,HourlyPrecipIn,Conditions,Clouds,dailyrainin,SolarRadiationWatts/m^2,SoftwareType,DateUTC
2013-08-06 00:05:00,66.3,50.0,29.75,NNW,340,0.0,-999.0,56,-99.99,,,0.00,0,weatherlink.com 1.10,2013-08-06 07:05:00,
2013-08-06 00:20:00,66.1,50.0,29.76,NNW,340,0.0,-999.0,57,-99.99,,,0.00,0,weatherlink.com 1.10,2013-08-06 07:20:00,
2013-08-06 00:35:00,66.0,50.0,29.76,NNW,340,0.0,-999.0,57,-99.99,,,0.00,0,weatherlink.com 1.10,2013-08-06 07:35:00,
2013-08-06 00:50:00,65.3,48.0,29.76,NNW,340,3.0,-999.0,53,-99.99,,,0.00,0,weatherlink.com 1.10,2013-08-06 07:50:00,
2013-08-06 01:05:00,64.9,47.0,29.76,NW,306,4.0,-999.0,53,-99.99,,,0.00,0,weatherlink.com 1.10,2013-08-06 08:05:00,
2013-08-06 01:20:00,65.0,47.0,29.76,NW,306,3.0,-999.0,52,-99.99,,,0.00,0,weatherlink.com 1.10,2013-08-06 08:20:00,
2013-08-06 01:35:00,63.9,44.0,29.76,WNW,298,4.0,-999.0,49,-99.99,,,0.00,0,weatherlink.com 1.10,2013-08-06 08:35:00,
2013-08-06 01:50:00,63.5,46.0,29.76,WSW,252,3.0,-999.0,53,-99.99,,,0.00,0,weatherlink.com 1.10,2013-08-06 08:50:00,
2013-08-06 02:05:00,62.6,44.0,29.76,SW,229,5.0,-999.0,50,-99.99,,,0.00,0,weatherlink.com 1.10,2013-08-06 09:05:00,
2013-08-06 02:20:00,62.0,45.0,29.77,SW,220,4.0,-999.0,54,-99.99,,,0.00,0,weatherlink.com 1.10,2013-08-06 09:20:00,
2013-08-06 02:35:00,61.5,44.0,29.77,SW,218,6.0,-999.0,53,-99.99,,,0.00,0,weatherlink.com 1.10,2013-08-06 09:35:00,
2013-08-06 02:50:00,61.7,43.0,29.77,SW,219,5.0,-999.0,51,-99.99,,,0.00,0,weatherlink.com 1.10,2013-08-06 09:50:00,
2013-08-06 03:05:00,62.7,45.0,29.77,SW,219,4.0,-999.0,52,-99.99,,,0.00,0,weatherlink.com 1.10,2013-08-06 10:05:00,
2013-08-06 03:20:00,64.0,47.0,29.77,SW,219,0.0,-999.0,55,-99.99,,,0.00,0,weatherlink.com 1.10,2013-08-06 10:20:00,
2013-08-06 03:35:00,65.0,47.0,29.76,SW,219,0.0,-999.0,53,-99.99,,,0.00,0,weatherlink.com 1.10,2013-08-06 10:35:00,
2013-08-06 03:50:00,64.2,46.0,29.77,SW,219,3.0,-999.0,51,-99.99,,,0.00,0,weatherlink.com 1.10,2013-08-06 10:50:00,
2013-08-06 04:05:00,62.2,45.0,29.77,SW,219,3.0,-999.0,54,-99.99,,,0.00,0,weatherlink.com 1.10,2013-08-06 11:05:00,
2013-08-06 04:20:00,62.7,45.0,29.77,SW,219,3.0,-999.0,53,-99.99,,,0.00,0,weatherlink.com 1.10,2013-08-06 11:20:00,
2013-08-06 04:35:00,62.5,43.0,29.77,SW,219,3.0,-999.0,49,-99.99,,,0.00,0,weatherlink.com 1.10,2013-08-06 11:35:00,
2013-08-06 04:50:00,60.9,44.0,29.77,SW,219,3.0,-999.0,54,-99.99,,,0.00,0,weatherlink.com 1.10,2013-08-06 11:50:00,
2013-08-06 05:05:00,60.5,45.0,29.77,SW,219,3.0,-999.0,56,-99.99,,,0.00,0,weatherlink.com 1.10,2013-08-06 12:05:00,
2013-08-06 05:20:00,59.5,44.0,29.77,SW,219,4.0,-999.0,57,-99.99,,,0.00,0,weatherlink.com 1.10,2013-08-06 12:20:00,
2013-08-06 05:35:00,60.4,45.0,29.77,SW,219,4.0,-999.0,57,-99.99,,,0.00,0,weatherlink.com 1.10,2013-08-06 12:35:00,
2013-08-06 05:50:00,60.5,45.0,29.77,SW,220,2.0,-999.0,57,-99.99,,,0.00,0,weatherlink.com 1.10,2013-08-06 12:50:00,
2013-08-06 06:05:00,60.4,44.0,29.77,SW,220,3.0,-999.0,56,-99.99,,,0.00,5,weatherlink.com 1.10,2013-08-06 13:05:00,
2013-08-06 06:20:00,60.2,44.0,29.77,SW,220,2.0,-999.0,55,-99.99,,,0.00,19,weatherlink.com 1.10,2013-08-06 13:20:00,
2013-08-06 06:35:00,62.9,45.0,29.77,SW,220,3.0,-999.0,53,-99.99,,,0.00,40,weatherlink.com 1.10,2013-08-06 13:35:00,
2013-08-06 06:50:00,61.0,44.0,29.78,SW,220,4.0,-999.0,53,-99.99,,,0.00,79,weatherlink.com 1.10,2013-08-06 13:50:00,
2013-08-06 07:05:00,62.4,44.0,29.78,SW,220,2.0,-999.0,52,-99.99,,,0.00,121,weatherlink.com 1.10,2013-08-06 14:05:00,
2013-08-06 07:20:00,63.7,45.0,29.78,SW,221,2.0,-999.0,51,-99.99,,,0.00,169,weatherlink.com 1.10,2013-08-06 14:20:00,
2013-08-06 07:35:00,65.0,45.0,29.78,SW,221,2.0,-999.0,49,-99.99,,,0.00,216,weatherlink.com 1.10,2013-08-06 14:35:00,
2013-08-06 07:50:00,65.5,46.0,29.78,SW,221,2.0,-999.0,49,-99.99,,,0.00,258,weatherlink.com 1.10,2013-08-06 14:50:00,
2013-08-06 08:05:00,66.4,46.0,29.78,SW,221,0.0,-999.0,48,-99.99,,,0.00,302,weatherlink.com 1.10,2013-08-06 15:05:00,
2013-08-06 08:20:00,67.5,46.0,29.78,SW,221,1.0,-999.0,47,-99.99,,,0.00,345,weatherlink.com 1.10,2013-08-06 15:20:00,
2013-08-06 08:35:00,67.8,46.0,29.78,SW,218,1.0,-999.0,46,-99.99,,,0.00,388,weatherlink.com 1.10,2013-08-06 15:35:00,
2013-08-06 08:50:00,69.0,47.0,29.79,SW,217,0.0,-999.0,45,-99.99,,,0.00,434,weatherlink.com 1.10,2013-08-06 15:50:00,
2013-08-06 09:05:00,70.0,48.0,29.79,East,92,4.0,-999.0,45,-99.99,,,0.00,483,weatherlink.com 1.10,2013-08-06 16:05:00,
2013-08-06 09:21:00,70.3,47.0,29.79,NNW,336,2.0,-999.0,44,-99.99,,,0.00,533,weatherlink.com 1.10,2013-08-06 16:21:00,
2013-08-06 09:35:00,70.7,48.0,29.79,NE,38,4.0,-999.0,44,-99.99,,,0.00,573,weatherlink.com 1.10,2013-08-06 16:35:00,
2013-08-06 09:51:00,72.2,47.0,29.78,North,355,1.0,-999.0,41,-99.99,,,0.00,619,weatherlink.com 1.10,2013-08-06 16:51:00,
2013-08-06 10:06:00,73.0,47.0,29.78,NNE,12,4.0,-999.0,40,-99.99,,,0.00,652,weatherlink.com 1.10,2013-08-06 17:06:00,
2013-08-06 10:21:00,74.1,46.0,29.78,North,355,1.0,-999.0,37,-99.99,,,0.00,693,weatherlink.com 1.10,2013-08-06 17:21:00,
2013-08-06 10:36:00,75.7,48.0,29.78,NNE,14,0.0,-999.0,37,-99.99,,,0.00,712,weatherlink.com 1.10,2013-08-06 17:36:00,
2013-08-06 10:51:00,76.5,48.0,29.78,North,11,0.0,-999.0,36,-99.99,,,0.00,737,weatherlink.com 1.10,2013-08-06 17:51:00,
2013-08-06 11:06:00,77.9,47.0,29.77,NE,51,0.0,-999.0,33,-99.99,,,0.00,772,weatherlink.com 1.10,2013-08-06 18:06:00,
2013-08-06 11:21:00,78.8,43.0,29.77,NE,36,0.0,-999.0,28,-99.99,,,0.00,793,weatherlink.com 1.10,2013-08-06 18:21:00,
2013-08-06 11:36:00,80.3,43.0,29.77,NE,54,3.0,-999.0,27,-99.99,,,0.00,805,weatherlink.com 1.10,2013-08-06 18:36:00,
2013-08-06 11:51:00,81.2,44.0,29.77,NE,37,0.0,-999.0,27,-99.99,,,0.00,819,weatherlink.com 1.10,2013-08-06 18:51:00,
2013-08-06 12:06:00,81.3,43.0,29.76,NNE,20,3.0,-999.0,26,-99.99,,,0.00,831,weatherlink.com 1.10,2013-08-06 19:06:00,
2013-08-06 12:21:00,82.6,42.0,29.76,NNE,28,1.0,-999.0,24,-99.99,,,0.00,858,weatherlink.com 1.10,2013-08-06 19:21:00,
2013-08-06 12:36:00,84.5,43.0,29.76,ENE,68,2.0,-999.0,23,-99.99,,,0.00,877,weatherlink.com 1.10,2013-08-06 19:36:00,
2013-08-06 12:51:00,85.3,42.0,29.75,East,92,2.0,-999.0,22,-99.99,,,0.00,856,weatherlink.com 1.10,2013-08-06 19:51:00,
2013-08-06 13:06:00,85.9,40.0,29.75,North,360,10.0,-999.0,20,-99.99,,,0.00,904,weatherlink.com 1.10,2013-08-06 20:06:00,
2013-08-06 13:21:00,85.6,40.0,29.74,NW,316,12.0,-999.0,20,-99.99,,,0.00,875,weatherlink.com 1.10,2013-08-06 20:21:00,
2013-08-06 13:36:00,85.7,40.0,29.74,North,355,9.0,-999.0,20,-99.99,,,0.00,861,weatherlink.com 1.10,2013-08-06 20:36:00,
2013-08-06 13:51:00,86.1,39.0,29.74,NNW,346,7.0,-999.0,19,-99.99,,,0.00,874,weatherlink.com 1.10,2013-08-06 20:51:00,
2013-08-06 14:06:00,86.1,39.0,29.73,WNW,298,1.0,-999.0,19,-99.99,,,0.00,842,weatherlink.com 1.10,2013-08-06 21:06:00,
2013-08-06 14:21:00,87.2,40.0,29.72,North,5,5.0,-999.0,19,-99.99,,,0.00,831,weatherlink.com 1.10,2013-08-06 21:21:00,
2013-08-06 14:36:00,88.0,39.0,29.72,NE,43,6.0,-999.0,18,-99.99,,,0.00,821,weatherlink.com 1.10,2013-08-06 21:36:00,
2013-08-06 14:51:00,88.4,40.0,29.71,NW,319,5.0,-999.0,18,-99.99,,,0.00,766,weatherlink.com 1.10,2013-08-06 21:51:00,
2013-08-06 15:06:00,88.8,40.0,29.71,NNE,28,3.0,-999.0,18,-99.99,,,0.00,751,weatherlink.com 1.10,2013-08-06 22:06:00,
2013-08-06 15:21:00,89.0,39.0,29.71,North,5,6.0,-999.0,17,-99.99,,,0.00,728,weatherlink.com 1.10,2013-08-06 22:21:00,
2013-08-06 15:36:00,89.8,38.0,29.71,NE,39,8.0,-999.0,16,-99.99,,,0.00,693,weatherlink.com 1.10,2013-08-06 22:36:00,
2013-08-06 15:51:00,89.2,37.0,29.70,NNW,327,9.0,-999.0,16,-99.99,,,0.00,661,weatherlink.com 1.10,2013-08-06 22:51:00,
2013-08-06 16:06:00,88.9,39.0,29.70,NNE,15,5.0,-999.0,17,-99.99,,,0.00,619,weatherlink.com 1.10,2013-08-06 23:06:00,
2013-08-06 16:21:00,88.6,38.0,29.70,NNW,345,10.0,-999.0,17,-99.99,,,0.00,582,weatherlink.com 1.10,2013-08-06 23:21:00,
2013-08-06 16:36:00,89.0,37.0,29.69,NNE,22,15.0,-999.0,16,-99.99,,,0.00,557,weatherlink.com 1.10,2013-08-06 23:36:00,
2013-08-06 16:51:00,87.4,39.0,29.69,North,5,7.0,-999.0,18,-99.99,,,0.00,508,weatherlink.com 1.10,2013-08-06 23:51:00,
2013-08-06 17:06:00,87.5,39.0,29.69,NNW,340,7.0,-999.0,18,-99.99,,,0.00,466,weatherlink.com 1.10,2013-08-07 00:06:00,
2013-08-06 17:21:00,87.3,39.0,29.69,NNE,24,6.0,-999.0,18,-99.99,,,0.00,425,weatherlink.com 1.10,2013-08-07 00:21:00,
2013-08-06 17:36:00,86.9,39.0,29.69,NNW,348,10.0,-999.0,18,-99.99,,,0.00,378,weatherlink.com 1.10,2013-08-07 00:36:00,
2013-08-06 17:51:00,86.2,38.0,29.69,NW,321,9.0,-999.0,18,-99.99,,,0.00,329,weatherlink.com 1.10,2013-08-07 00:51:00,
2013-08-06 18:06:00,85.9,39.0,29.68,NNW,333,11.0,-999.0,19,-99.99,,,0.00,294,weatherlink.com 1.10,2013-08-07 01:06:00,
2013-08-06 18:21:00,85.2,42.0,29.68,NNW,347,13.0,-999.0,22,-99.99,,,0.00,257,weatherlink.com 1.10,2013-08-07 01:21:00,
2013-08-06 18:36:00,84.3,43.0,29.68,NNW,332,7.0,-999.0,23,-99.99,,,0.00,206,weatherlink.com 1.10,2013-08-07 01:36:00,
2013-08-06 18:51:00,83.9,42.0,29.69,NW,316,19.0,-999.0,23,-99.99,,,0.00,171,weatherlink.com 1.10,2013-08-07 01:51:00,
2013-08-06 19:06:00,83.2,43.0,29.69,NW,310,15.0,-999.0,24,-99.99,,,0.00,158,weatherlink.com 1.10,2013-08-07 02:06:00,
2013-08-06 19:21:00,82.7,41.0,29.70,NNW,341,17.0,-999.0,23,-99.99,,,0.00,113,weatherlink.com 1.10,2013-08-07 02:21:00,
2013-08-06 19:36:00,81.4,40.0,29.70,NNW,336,12.0,-999.0,23,-99.99,,,0.00,47,weatherlink.com 1.10,2013-08-07 02:36:00,
2013-08-06 19:51:00,80.6,39.0,29.70,NW,314,8.0,-999.0,23,-99.99,,,0.00,26,weatherlink.com 1.10,2013-08-07 02:51:00,
2013-08-06 20:06:00,80.0,39.0,29.71,NW,323,10.0,-999.0,23,-99.99,,,0.00,23,weatherlink.com 1.10,2013-08-07 03:06:00,
2013-08-06 20:21:00,79.1,39.0,29.71,NW,317,8.0,-999.0,24,-99.99,,,0.00,12,weatherlink.com 1.10,2013-08-07 03:21:00,
2013-08-06 20:36:00,78.1,38.0,29.71,NW,321,6.0,-999.0,24,-99.99,,,0.00,0,weatherlink.com 1.10,2013-08-07 03:36:00,
2013-08-06 20:51:00,77.4,41.0,29.71,NW,323,10.0,-999.0,27,-99.99,,,0.00,0,weatherlink.com 1.10,2013-08-07 03:51:00,
2013-08-06 21:06:00,76.7,42.0,29.72,NNW,327,3.0,-999.0,29,-99.99,,,0.00,0,weatherlink.com 1.10,2013-08-07 04:06:00,
2013-08-06 21:21:00,76.0,41.0,29.73,NNW,337,4.0,-999.0,29,-99.99,,,0.00,0,weatherlink.com 1.10,2013-08-07 04:21:00,
2013-08-06 21:36:00,75.1,41.0,29.72,NNW,327,7.0,-999.0,29,-99.99,,,0.00,0,weatherlink.com 1.10,2013-08-07 04:36:00,
2013-08-06 21:51:00,74.3,40.0,29.73,NNW,338,2.0,-999.0,29,-99.99,,,0.00,0,weatherlink.com 1.10,2013-08-07 04:51:00,
2013-08-06 22:06:00,73.3,42.0,29.73,North,355,6.0,-999.0,32,-99.99,,,0.00,0,weatherlink.com 1.10,2013-08-07 05:06:00,
2013-08-06 22:21:00,72.8,45.0,29.73,North,11,5.0,-999.0,37,-99.99,,,0.00,0,weatherlink.com 1.10,2013-08-07 05:21:00,
2013-08-06 22:36:00,72.0,46.0,29.73,North,5,6.0,-999.0,39,-99.99,,,0.00,0,weatherlink.com 1.10,2013-08-07 05:36:00,
2013-08-06 22:51:00,71.3,46.0,29.73,North,355,5.0,-999.0,40,-99.99,,,0.00,0,weatherlink.com 1.10,2013-08-07 05:51:00,
2013-08-06 23:06:00,70.9,45.0,29.73,North,355,4.0,-999.0,40,-99.99,,,0.00,0,weatherlink.com 1.10,2013-08-07 06:06:00,
2013-08-06 23:21:00,70.3,45.0,29.73,North,355,3.0,-999.0,41,-99.99,,,0.00,0,weatherlink.com 1.10,2013-08-07 06:21:00,
2013-08-06 23:36:00,69.1,45.0,29.73,NNW,348,3.0,-999.0,42,-99.99,,,0.00,0,weatherlink.com 1.10,2013-08-07 06:36:00,
2013-08-06 23:51:00,68.7,45.0,29.74,NNW,340,4.0,-999.0,42,-99.99,,,0.00,0,weatherlink.com 1.10,2013-08-07 06:51:00,